Boerne, TX (78006)

5:42 PM CST on January 19, 2017 (GMT -0600)
Big Dan's Ranch | | Change Station

Elev 1519 ft 29.81 °N, 98.76 °W | Updated 13 seconds ago

Clear
Clear
63.4 °F
Feels Like 63.4 °F
N
0.0
Wind Variable Wind from South

Today
High -- | Low -- °F
--% Chance of Precip.
Yesterday
High -- | Low -- °F
Precip. -- in
Pressure 29.75 in
Visibility 10.0 miles
Clouds Clear
Dew Point 51 °F
Humidity 65%
Rainfall 0.00 in
Snow Depth Not available.
7:30 AM 6:01 PM
Waning Gibbous, 49% visible
METAR K5C1 192335Z AUTO 21006KT 10SM CLR 18/10 A2975 RMK AO1
Pressure 29.75 in
Visibility 10.0 miles
Clouds Clear
Dew Point 51 °F
Humidity 65%
Rainfall 0.00 in
Snow Depth Not available.
7:30 AM 6:01 PM
Waning Gibbous, 49% visible
METAR K5C1 192335Z AUTO 21006KT 10SM CLR 18/10 A2975 RMK AO1

Get Your Daily Forecast Email!

Thanks for signing up!

Be on the lookout for a verification email in your inbox.

You'll start receiving the daily forecast at 8 AM.

×

10-Day Weather Forecast

Almanac

Astronomy

Jan. 19, 2017 Rise Set
Actual Time
Civil Twilight
Nautical Twilight
Astronomical Twilight
Moon
Length of Visible Light
Length of Day
Tomorrow will be .
, % of the Moon is Illuminated

Today's Extremes

State Highs State Lows

Community

WunderPhotos

Upload Photos

1,962,540 photos uploaded!

WunderBlog® & News

Nearby

Air Quality

  Air Quality AQ Index Pollutant
Not available.

Snow Depth

Station Depth Elevation

Earthquake Activity

City Distance Mag. Time & Date
Minimum magnitude displayed is 2.5.

Coastal Water Temperatures

Place Temperature

Stations

Nearby Weather Stations

Station Location Temp. Windchill Dew Point Humidity Wind Precip. Elev Updated Type
                   

Watches & Warnings

There are currently no watches in effect.